Time;durP1;ratioP1;P1;durP2;ratioP2;P2;SDS_P1;SDS_P2;PMS_P1;PMS_P2;Temp;Humidity;BMP_temperature;BMP_pressure;BME280_temperature;BME280_humidity;BME280_pressure;Samples;Min_cycle;Max_cycle;Signal;HPM_P1;HPM_P2
2023/05/14 00:00:48;;;;;;;0.13;0.13;;;11.70;99.90;;;;;;5006382;28;20029;-43
2023/05/14 00:03:13;;;;;;;0.20;0.20;;;11.70;99.90;;;;;;4991528;28;20030;-44
2023/05/14 00:05:39;;;;;;;0.20;0.20;;;11.70;99.90;;;;;;4991346;28;20022;-42
2023/05/14 00:08:05;;;;;;;0.13;0.13;;;11.60;99.90;;;;;;4991033;28;20034;-41
2023/05/14 00:10:31;;;;;;;0.10;0.10;;;11.60;99.90;;;;;;4990793;28;20034;-42
2023/05/14 00:12:56;;;;;;;0.20;0.20;;;11.50;99.90;;;;;;4991289;28;20359;-43
2023/05/14 00:15:22;;;;;;;0.20;0.20;;;11.50;99.90;;;;;;4990969;28;20117;-46
2023/05/14 00:17:48;;;;;;;0.20;0.20;;;11.50;99.90;;;;;;4991025;28;20022;-45
2023/05/14 00:20:13;;;;;;;0.10;0.10;;;11.50;99.90;;;;;;4990264;28;20057;-49
2023/05/14 00:22:39;;;;;;;0.20;0.20;;;11.50;99.90;;;;;;4990363;28;20026;-41
2023/05/14 00:25:06;;;;;;;0.10;0.10;;;11.40;99.90;;;;;;4991001;28;20136;-46
2023/05/14 00:27:32;;;;;;;0.20;0.20;;;11.50;99.90;;;;;;4990440;28;20026;-45
2023/05/14 00:29:58;;;;;;;0.20;0.20;;;11.50;99.90;;;;;;4991312;28;20069;-44
2023/05/14 00:32:24;;;;;;;0.20;0.20;;;11.50;99.90;;;;;;4991150;28;20026;-42
2023/05/14 00:34:49;;;;;;;0.30;0.30;;;11.50;99.90;;;;;;5005955;28;20093;-45
2023/05/14 00:37:15;;;;;;;0.20;0.20;;;11.50;99.90;;;;;;4989655;28;20597;-44
2023/05/14 00:39:41;;;;;;;0.28;0.28;;;11.40;99.90;;;;;;4989767;28;20034;-52
2023/05/14 00:42:06;;;;;;;0.20;0.20;;;11.50;99.90;;;;;;4990147;28;20049;-50
2023/05/14 00:44:32;;;;;;;0.20;0.20;;;11.50;99.90;;;;;;4989882;28;20081;-44
2023/05/14 00:46:58;;;;;;;0.20;0.20;;;11.50;99.90;;;;;;4990452;28;20017;-46
2023/05/14 00:49:25;;;;;;;0.20;0.20;;;11.60;99.90;;;;;;4990094;28;20388;-45
2023/05/14 00:51:51;;;;;;;0.20;0.20;;;11.50;99.90;;;;;;4990551;28;20038;-46
2023/05/14 00:54:19;;;;;;;0.30;0.30;;;11.50;99.90;;;;;;4989457;28;20066;-51
2023/05/14 00:56:45;;;;;;;0.20;0.20;;;11.50;99.90;;;;;;4990886;28;20034;-44
2023/05/14 00:59:12;;;;;;;0.20;0.20;;;11.50;99.90;;;;;;4991090;28;20168;-49
2023/05/14 01:01:38;;;;;;;0.20;0.20;;;11.40;99.90;;;;;;4990470;28;20482;-43
2023/05/14 01:04:06;;;;;;;0.20;0.20;;;11.40;99.90;;;;;;4989696;28;20090;-45
2023/05/14 01:06:47;;;;;;;0.32;0.32;;;11.40;99.90;;;;;;4989551;28;20026;-46
2023/05/14 01:09:38;;;;;;;0.10;0.10;;;11.40;99.90;;;;;;4989609;28;20474;-47
2023/05/14 01:12:15;;;;;;;0.20;0.20;;;11.40;99.90;;;;;;4987264;28;20044;-45
2023/05/14 01:14:56;;;;;;;0.20;0.20;;;11.40;99.90;;;;;;4990699;28;20482;-48
2023/05/14 01:17:27;;;;;;;0.20;0.20;;;11.40;99.90;;;;;;4990775;28;20037;-48
2023/05/14 01:19:55;;;;;;;0.20;0.20;;;11.40;99.90;;;;;;4989599;28;20023;-48
2023/05/14 01:22:21;;;;;;;0.35;0.25;;;11.30;99.90;;;;;;4989638;28;20029;-46
2023/05/14 01:24:46;;;;;;;0.32;0.32;;;11.30;99.90;;;;;;4988457;28;20097;-43
2023/05/14 01:27:25;;;;;;;0.20;0.20;;;11.30;99.90;;;;;;4989953;28;20456;-53
2023/05/14 01:30:16;;;;;;;0.23;0.23;;;11.30;99.90;;;;;;4990792;28;20026;-47
2023/05/14 01:32:46;;;;;;;0.20;0.20;;;11.30;99.90;;;;;;4990511;28;20264;-48
2023/05/14 01:35:13;;;;;;;0.15;0.15;;;11.20;99.90;;;;;;4994075;28;20034;-45
2023/05/14 01:37:40;;;;;;;0.10;0.10;;;11.20;99.90;;;;;;4993791;28;20018;-47
2023/05/14 01:40:08;;;;;;;0.20;0.20;;;11.20;99.90;;;;;;4993479;28;20093;-43
2023/05/14 01:42:34;;;;;;;0.32;0.25;;;11.30;99.90;;;;;;4993760;28;20437;-42
2023/05/14 01:45:01;;;;;;;0.10;0.10;;;11.20;99.90;;;;;;4993642;28;20504;-43
2023/05/14 01:47:27;;;;;;;0.20;0.20;;;11.30;99.90;;;;;;4994129;28;20167;-43
2023/05/14 01:49:52;;;;;;;0.20;0.20;;;11.20;99.90;;;;;;4992588;28;20132;-43
2023/05/14 01:52:20;;;;;;;0.20;0.20;;;11.20;99.90;;;;;;4992401;28;20029;-48
2023/05/14 01:54:46;;;;;;;0.20;0.20;;;11.20;99.90;;;;;;4992313;28;20029;-50
2023/05/14 01:57:12;;;;;;;0.20;0.20;;;11.20;99.90;;;;;;4992882;28;20091;-43
2023/05/14 01:59:37;;;;;;;0.17;0.17;;;11.20;99.90;;;;;;4993991;28;20065;-51
2023/05/14 02:02:03;;;;;;;0.20;0.20;;;11.20;99.90;;;;;;4993447;28;20426;-49
2023/05/14 02:04:29;;;;;;;0.20;0.20;;;11.20;99.90;;;;;;4993591;28;20066;-50
2023/05/14 02:06:54;;;;;;;0.20;0.20;;;11.20;99.90;;;;;;4992920;28;20027;-50
2023/05/14 02:09:20;;;;;;;0.13;0.13;;;11.20;99.90;;;;;;4991924;28;20058;-47
2023/05/14 02:11:45;;;;;;;0.55;0.35;;;11.20;99.90;;;;;;4992055;28;20023;-50
2023/05/14 02:14:11;;;;;;;0.10;0.10;;;11.20;99.90;;;;;;4992539;28;20038;-54
2023/05/14 02:16:37;;;;;;;0.10;0.10;;;11.20;99.90;;;;;;4992154;28;20026;-50
2023/05/14 02:19:02;;;;;;;0.80;0.60;;;11.10;99.90;;;;;;4992492;28;20034;-47
2023/05/14 02:21:28;;;;;;;0.30;0.30;;;11.10;99.90;;;;;;4992502;28;20105;-52
2023/05/14 02:23:54;;;;;;;0.20;0.20;;;11.10;99.90;;;;;;5007051;28;20034;-44
2023/05/14 02:26:20;;;;;;;0.10;0.10;;;11.10;99.90;;;;;;4991697;28;20049;-47
2023/05/14 02:28:46;;;;;;;0.10;0.10;;;11.00;99.90;;;;;;4992572;28;20039;-42
2023/05/14 02:31:11;;;;;;;0.20;0.20;;;11.00;99.90;;;;;;5007215;28;20038;-48
2023/05/14 02:33:37;;;;;;;0.20;0.20;;;11.00;99.90;;;;;;4992363;28;20029;-52
2023/05/14 02:36:03;;;;;;;0.25;0.25;;;11.00;99.90;;;;;;4992409;28;20072;-46
2023/05/14 02:38:29;;;;;;;0.10;0.10;;;11.00;99.90;;;;;;4992671;28;20053;-49
2023/05/14 02:40:55;;;;;;;0.20;0.20;;;11.00;99.90;;;;;;4992211;28;20104;-54
2023/05/14 02:43:20;;;;;;;0.20;0.20;;;10.90;99.90;;;;;;4992952;28;20031;-50
2023/05/14 02:45:46;;;;;;;0.20;0.20;;;10.90;99.90;;;;;;4991277;28;20433;-52
2023/05/14 02:48:12;;;;;;;0.10;0.10;;;10.90;99.90;;;;;;4992104;28;20026;-46
2023/05/14 02:50:37;;;;;;;0.20;0.20;;;10.90;99.90;;;;;;4991753;28;20061;-45
2023/05/14 02:53:03;;;;;;;0.10;0.10;;;10.90;99.90;;;;;;4991712;28;20019;-50
2023/05/14 02:55:28;;;;;;;0.13;0.13;;;10.90;99.90;;;;;;4991766;28;20120;-42
2023/05/14 02:57:55;;;;;;;0.20;0.20;;;10.80;99.90;;;;;;4992560;28;20026;-42
2023/05/14 03:00:21;;;;;;;0.20;0.20;;;10.80;99.90;;;;;;4992486;28;20031;-42
2023/05/14 03:02:47;;;;;;;0.20;0.20;;;10.80;99.90;;;;;;4992531;28;20073;-43
2023/05/14 03:05:12;;;;;;;0.20;0.20;;;10.80;99.90;;;;;;4992061;28;20030;-43
2023/05/14 03:07:38;;;;;;;0.20;0.20;;;10.80;99.90;;;;;;4992506;28;20022;-42
2023/05/14 03:10:04;;;;;;;0.10;0.10;;;10.80;99.90;;;;;;4992495;28;20441;-43
2023/05/14 03:12:30;;;;;;;0.10;0.10;;;10.90;99.90;;;;;;4992053;28;20053;-44
2023/05/14 03:14:55;;;;;;;0.20;0.20;;;10.80;99.90;;;;;;4991684;28;20031;-53
2023/05/14 03:17:21;;;;;;;0.40;0.40;;;10.90;99.90;;;;;;4992108;28;20105;-44
2023/05/14 03:19:47;;;;;;;0.20;0.20;;;10.90;99.90;;;;;;4991983;28;20026;-46
2023/05/14 03:22:13;;;;;;;0.30;0.30;;;10.80;99.90;;;;;;4991862;28;20026;-45
2023/05/14 03:24:39;;;;;;;0.20;0.20;;;10.80;99.90;;;;;;4992010;28;20026;-48
2023/05/14 03:27:05;;;;;;;0.20;0.20;;;10.80;99.90;;;;;;4992200;28;20533;-46
2023/05/14 03:29:31;;;;;;;0.30;0.30;;;10.80;99.90;;;;;;4991891;28;20573;-44
2023/05/14 03:31:56;;;;;;;0.20;0.20;;;10.70;99.90;;;;;;4991532;28;20062;-44
2023/05/14 03:34:22;;;;;;;0.13;0.13;;;10.70;99.90;;;;;;4991678;28;20026;-45
2023/05/14 03:36:48;;;;;;;0.63;0.57;;;10.70;99.90;;;;;;4992276;28;20496;-43
2023/05/14 03:39:20;;;;;;;0.68;0.68;;;10.70;99.90;;;;;;4991345;28;20112;-43
2023/05/14 03:41:46;;;;;;;0.10;0.10;;;10.70;99.90;;;;;;4990066;28;20501;-47
2023/05/14 03:44:12;;;;;;;0.10;0.10;;;10.60;99.90;;;;;;4989946;28;20421;-50
2023/05/14 03:46:38;;;;;;;0.10;0.10;;;10.60;99.90;;;;;;4991646;28;20018;-43
2023/05/14 03:49:03;;;;;;;0.40;0.40;;;10.60;99.90;;;;;;4991375;28;20421;-47
2023/05/14 03:51:30;;;;;;;0.20;0.20;;;10.60;99.90;;;;;;4991611;28;20045;-47
2023/05/14 03:53:57;;;;;;;0.20;0.20;;;10.60;99.90;;;;;;4990195;28;20494;-53
2023/05/14 03:56:23;;;;;;;0.10;0.10;;;10.60;99.90;;;;;;4991635;28;20113;-43
2023/05/14 03:58:49;;;;;;;0.20;0.20;;;10.60;99.90;;;;;;4991380;28;20034;-43
2023/05/14 04:01:14;;;;;;;0.30;0.30;;;10.60;99.90;;;;;;4991378;28;20029;-52
2023/05/14 04:03:40;;;;;;;0.10;0.10;;;10.50;99.90;;;;;;4991487;28;20022;-56
2023/05/14 04:06:06;;;;;;;0.25;0.25;;;10.50;99.90;;;;;;4991274;28;20022;-46
2023/05/14 04:08:31;;;;;;;0.10;0.10;;;10.50;99.90;;;;;;4990250;28;20034;-45
2023/05/14 04:10:57;;;;;;;0.40;0.40;;;10.50;99.90;;;;;;4991242;28;20030;-47
2023/05/14 04:13:22;;;;;;;0.10;0.10;;;10.50;99.90;;;;;;4991294;28;20057;-43
2023/05/14 04:15:48;;;;;;;0.10;0.10;;;10.50;99.90;;;;;;4991327;28;20088;-50
2023/05/14 04:18:14;;;;;;;0.20;0.20;;;10.50;99.90;;;;;;4990856;28;20023;-43
2023/05/14 04:20:39;;;;;;;0.30;0.30;;;10.50;99.90;;;;;;4991678;28;20061;-52
2023/05/14 04:23:05;;;;;;;0.38;0.38;;;10.50;99.90;;;;;;5005925;28;20027;-46
2023/05/14 04:25:31;;;;;;;0.20;0.20;;;10.50;99.90;;;;;;4991430;28;20045;-45
2023/05/14 04:27:57;;;;;;;0.20;0.20;;;10.60;99.90;;;;;;4991189;28;20022;-53
2023/05/14 04:30:23;;;;;;;0.20;0.20;;;10.60;99.90;;;;;;4991368;28;20149;-43
2023/05/14 04:32:48;;;;;;;0.20;0.20;;;10.60;99.90;;;;;;4990876;28;20501;-50
2023/05/14 04:35:14;;;;;;;0.25;0.25;;;10.70;99.90;;;;;;4990987;28;20030;-51
2023/05/14 04:37:40;;;;;;;2.08;0.63;;;10.60;99.90;;;;;;4991207;28;20050;-49
2023/05/14 04:40:07;;;;;;;0.20;0.20;;;10.60;99.90;;;;;;4990572;28;20034;-43
2023/05/14 04:42:33;;;;;;;0.20;0.20;;;10.60;99.90;;;;;;5006239;28;20061;-45
2023/05/14 04:44:58;;;;;;;0.10;0.10;;;10.60;99.90;;;;;;4996357;28;20466;-52
2023/05/14 04:47:25;;;;;;;0.10;0.10;;;10.60;99.90;;;;;;5002515;28;20030;-46
2023/05/14 04:49:50;;;;;;;0.25;0.25;;;10.60;99.90;;;;;;4991010;28;20124;-46
2023/05/14 04:52:16;;;;;;;0.20;0.20;;;10.60;99.90;;;;;;4989672;28;20050;-43
2023/05/14 04:54:42;;;;;;;0.10;0.10;;;10.60;99.90;;;;;;4990760;28;20231;-44
2023/05/14 04:57:07;;;;;;;0.32;0.32;;;10.60;99.90;;;;;;4990901;28;20034;-51
2023/05/14 04:59:33;;;;;;;0.20;0.20;;;10.60;99.90;;;;;;4991003;28;20030;-52
2023/05/14 05:01:59;;;;;;;0.20;0.20;;;10.60;99.90;;;;;;4996152;28;20033;-43
2023/05/14 05:04:25;;;;;;;0.20;0.20;;;10.50;99.90;;;;;;4989721;28;20490;-46
2023/05/14 05:06:51;;;;;;;0.20;0.20;;;10.60;99.90;;;;;;4994656;28;20058;-55
2023/05/14 05:09:17;;;;;;;0.20;0.20;;;10.60;99.90;;;;;;4995336;28;20064;-48
2023/05/14 05:11:42;;;;;;;0.10;0.10;;;10.60;99.90;;;;;;4998165;28;20046;-49
2023/05/14 05:14:08;;;;;;;0.20;0.20;;;10.60;99.90;;;;;;4991318;28;20442;-50
2023/05/14 05:16:34;;;;;;;0.10;0.10;;;10.60;99.90;;;;;;4991170;28;20042;-50
2023/05/14 05:18:59;;;;;;;0.20;0.20;;;10.50;99.90;;;;;;4993214;28;20022;-43
2023/05/14 05:21:25;;;;;;;0.10;0.10;;;10.50;99.90;;;;;;4992386;28;20437;-53
2023/05/14 05:23:51;;;;;;;0.20;0.20;;;10.50;99.90;;;;;;4992185;28;20474;-45
2023/05/14 05:26:16;;;;;;;0.20;0.20;;;10.50;99.90;;;;;;4992238;28;20026;-51
2023/05/14 05:28:42;;;;;;;0.30;0.30;;;10.50;99.90;;;;;;4992360;28;20034;-43
2023/05/14 05:31:07;;;;;;;0.20;0.20;;;10.50;99.90;;;;;;4992029;28;20038;-43
2023/05/14 05:33:34;;;;;;;0.20;0.20;;;10.50;99.90;;;;;;4992125;28;20018;-45
2023/05/14 05:35:59;;;;;;;0.20;0.20;;;10.50;99.90;;;;;;4993414;28;20088;-46
2023/05/14 05:38:25;;;;;;;0.30;0.30;;;10.50;99.90;;;;;;4993637;28;20018;-44
2023/05/14 05:40:51;;;;;;;0.22;0.22;;;10.50;99.90;;;;;;4993663;28;20049;-48
2023/05/14 05:43:17;;;;;;;0.30;0.30;;;10.50;99.90;;;;;;4998926;28;20015;-43
2023/05/14 05:45:44;;;;;;;0.28;0.28;;;10.50;99.90;;;;;;4993563;28;20030;-48
2023/05/14 05:48:10;;;;;;;0.20;0.20;;;10.50;99.90;;;;;;4994114;28;20027;-49
2023/05/14 05:50:36;;;;;;;0.28;0.28;;;10.60;99.90;;;;;;4993791;28;20382;-48
2023/05/14 05:53:02;;;;;;;0.20;0.20;;;10.50;99.90;;;;;;4993829;28;20080;-48
2023/05/14 05:55:28;;;;;;;0.10;0.10;;;10.60;99.90;;;;;;4993802;28;20050;-45
2023/05/14 05:57:54;;;;;;;0.22;0.22;;;10.70;99.90;;;;;;4993661;28;20045;-42
2023/05/14 06:00:19;;;;;;;0.15;0.15;;;10.70;99.90;;;;;;4993730;28;20381;-51
2023/05/14 06:02:45;;;;;;;0.28;0.28;;;10.60;99.90;;;;;;4993490;28;20065;-43
2023/05/14 06:05:11;;;;;;;0.20;0.20;;;10.70;99.90;;;;;;4993587;28;20030;-46
2023/05/14 06:07:37;;;;;;;0.20;0.20;;;10.70;99.90;;;;;;4993469;28;20422;-44
2023/05/14 06:10:03;;;;;;;0.40;0.40;;;10.80;99.90;;;;;;4993323;28;20025;-42
2023/05/14 06:12:29;;;;;;;0.20;0.20;;;10.80;99.90;;;;;;4993406;28;20058;-42
2023/05/14 06:14:56;;;;;;;0.40;0.40;;;10.80;99.90;;;;;;4993208;28;20073;-45
2023/05/14 06:17:22;;;;;;;0.30;0.30;;;10.80;99.90;;;;;;4993479;28;20035;-42
2023/05/14 06:19:48;;;;;;;0.20;0.20;;;10.90;99.90;;;;;;4992362;28;20022;-42
2023/05/14 06:22:14;;;;;;;0.20;0.20;;;10.90;99.90;;;;;;4993227;28;20101;-42
2023/05/14 06:24:39;;;;;;;0.20;0.20;;;10.90;99.90;;;;;;4993085;28;20034;-46
2023/05/14 06:27:05;;;;;;;0.10;0.10;;;10.90;99.90;;;;;;4993224;28;20026;-41
2023/05/14 06:29:31;;;;;;;0.22;0.22;;;10.90;99.90;;;;;;4993569;28;20137;-44
2023/05/14 06:32:00;;;;;;;0.20;0.20;;;10.90;99.90;;;;;;4993371;28;20034;-46
2023/05/14 06:34:26;;;;;;;;;;;10.90;99.90;;;;;;4993381;28;20081;-44
2023/05/14 06:36:52;;;;;;;0.10;0.10;;;10.90;99.90;;;;;;4993169;28;20377;-43
2023/05/14 06:39:17;;;;;;;0.20;0.20;;;10.80;99.90;;;;;;4992924;28;20053;-49
2023/05/14 06:41:43;;;;;;;0.10;0.10;;;10.90;99.90;;;;;;4991540;28;20125;-46
2023/05/14 06:44:09;;;;;;;0.20;0.20;;;10.80;99.90;;;;;;4992960;28;20056;-52
2023/05/14 06:46:35;;;;;;;0.28;0.25;;;10.90;99.90;;;;;;4992809;28;20018;-45
2023/05/14 06:49:01;;;;;;;0.20;0.20;;;10.90;99.90;;;;;;4992851;28;20026;-44
2023/05/14 06:51:27;;;;;;;0.20;0.20;;;10.90;99.90;;;;;;4992916;28;20126;-44
2023/05/14 06:53:53;;;;;;;0.10;0.10;;;11.00;99.90;;;;;;4992527;28;20110;-43
2023/05/14 06:56:20;;;;;;;0.10;0.10;;;11.00;99.90;;;;;;4993031;28;20042;-43
2023/05/14 06:58:46;;;;;;;0.13;0.13;;;11.10;99.90;;;;;;4992641;28;20027;-51
2023/05/14 07:01:12;;;;;;;0.20;0.20;;;11.20;99.90;;;;;;4992596;28;20038;-51
2023/05/14 07:03:38;;;;;;;0.20;0.20;;;11.30;99.90;;;;;;4992562;28;20031;-50
2023/05/14 07:06:03;;;;;;;0.20;0.20;;;11.40;99.90;;;;;;4992292;28;20057;-46
2023/05/14 07:08:29;;;;;;;0.30;0.30;;;11.40;99.90;;;;;;4992371;28;20033;-45
2023/05/14 07:10:56;;;;;;;0.20;0.20;;;11.40;99.90;;;;;;4992273;28;20081;-50
2023/05/14 07:13:22;;;;;;;0.30;0.30;;;11.50;99.90;;;;;;4992264;28;20390;-51
2023/05/14 07:15:47;;;;;;;0.63;0.63;;;11.60;99.90;;;;;;4992196;28;20034;-45
2023/05/14 07:18:13;;;;;;;0.20;0.20;;;11.70;99.90;;;;;;4992397;28;20030;-43
2023/05/14 07:20:38;;;;;;;0.20;0.20;;;11.70;99.90;;;;;;4992383;28;20023;-43
2023/05/14 07:23:04;;;;;;;0.10;0.10;;;11.80;99.90;;;;;;4991888;28;20022;-43
2023/05/14 07:25:31;;;;;;;0.30;0.30;;;11.70;99.90;;;;;;4992162;28;20504;-51
2023/05/14 07:27:57;;;;;;;3.53;0.57;;;11.80;99.90;;;;;;4991791;28;20038;-49
2023/05/14 07:30:22;;;;;;;0.10;0.10;;;11.90;99.90;;;;;;4992258;28;20027;-46
2023/05/14 07:32:48;;;;;;;0.10;0.10;;;12.00;99.90;;;;;;4991790;28;20390;-49
2023/05/14 07:35:14;;;;;;;0.10;0.10;;;12.00;99.90;;;;;;4991919;28;20577;-52
2023/05/14 07:37:40;;;;;;;0.20;0.20;;;12.00;99.90;;;;;;5000655;28;20049;-43
2023/05/14 07:40:06;;;;;;;0.30;0.30;;;12.20;99.90;;;;;;4998207;28;20045;-43
2023/05/14 07:42:31;;;;;;;0.10;0.10;;;12.20;99.90;;;;;;5002502;28;20030;-45
2023/05/14 07:44:57;;;;;;;0.10;0.10;;;12.40;99.90;;;;;;4998994;28;20660;-46
2023/05/14 07:47:23;;;;;;;0.20;0.20;;;12.50;99.90;;;;;;4996902;28;20025;-47
2023/05/14 07:49:52;;;;;;;0.20;0.20;;;12.60;99.90;;;;;;4991775;28;20038;-52
2023/05/14 07:52:18;;;;;;;0.15;0.15;;;12.60;99.90;;;;;;4992161;28;20018;-56
2023/05/14 07:54:43;;;;;;;0.20;0.20;;;12.50;99.90;;;;;;4991640;28;20438;-47
2023/05/14 07:57:09;;;;;;;0.10;0.10;;;12.60;99.90;;;;;;4991541;28;20489;-53
2023/05/14 07:59:35;;;;;;;0.10;0.10;;;12.70;99.90;;;;;;4991947;28;20018;-46
2023/05/14 08:02:00;;;;;;;0.10;0.10;;;12.80;99.90;;;;;;4991532;28;20050;-46
2023/05/14 08:04:26;;;;;;;0.20;0.20;;;12.90;99.90;;;;;;4992572;28;20058;-44
2023/05/14 08:06:51;;;;;;;0.10;0.10;;;12.90;99.90;;;;;;4999712;28;20081;-44
2023/05/14 08:09:17;;;;;;;0.25;0.20;;;13.00;99.90;;;;;;4991232;28;20018;-47
2023/05/14 08:11:42;;;;;;;0.10;0.10;;;12.90;99.90;;;;;;4991225;28;20071;-49
2023/05/14 08:14:08;;;;;;;0.20;0.20;;;13.00;99.90;;;;;;4991160;28;20093;-42
2023/05/14 08:16:34;;;;;;;0.20;0.20;;;13.10;99.90;;;;;;5002994;28;20133;-43
2023/05/14 08:18:59;;;;;;;0.10;0.10;;;13.20;99.90;;;;;;4991245;28;20037;-44
2023/05/14 08:21:26;;;;;;;0.30;0.30;;;13.20;99.90;;;;;;4991146;28;20031;-42
2023/05/14 08:23:52;;;;;;;0.10;0.10;;;13.30;99.90;;;;;;4991344;28;20038;-53
2023/05/14 08:26:18;;;;;;;0.28;0.28;;;13.40;99.90;;;;;;4990799;28;20022;-49
2023/05/14 08:28:43;;;;;;;0.70;0.25;;;13.40;99.90;;;;;;4991391;28;20033;-53
2023/05/14 08:31:09;;;;;;;0.20;0.20;;;13.40;99.90;;;;;;4991026;28;20027;-52
2023/05/14 08:33:34;;;;;;;0.30;0.30;;;13.50;99.90;;;;;;4990995;28;20030;-56
2023/05/14 08:36:00;;;;;;;0.43;0.30;;;13.30;99.90;;;;;;4994409;28;20401;-45
2023/05/14 08:38:26;;;;;;;0.20;0.20;;;13.20;99.90;;;;;;4996255;28;20026;-48
2023/05/14 08:40:58;;;;;;;0.10;0.10;;;13.20;99.90;;;;;;5000265;28;20430;-50
2023/05/14 08:43:32;;;;;;;0.30;0.30;;;13.40;99.90;;;;;;4999082;28;20500;-44
2023/05/14 08:46:00;;;;;;;0.25;0.25;;;13.70;99.90;;;;;;5009479;28;20018;-53
2023/05/14 08:48:30;;;;;;;0.10;0.10;;;13.90;99.90;;;;;;5006694;28;20486;-50
2023/05/14 08:50:56;;;;;;;0.20;0.20;;;13.90;99.90;;;;;;4983349;28;20022;-54
2023/05/14 08:53:22;;;;;;;0.20;0.20;;;13.90;99.90;;;;;;4996168;28;20034;-46
2023/05/14 08:55:50;;;;;;;0.10;0.10;;;14.10;99.90;;;;;;4994690;28;20444;-49
2023/05/14 08:58:16;;;;;;;0.43;0.32;;;14.20;99.90;;;;;;4994983;28;20034;-56
2023/05/14 09:00:42;;;;;;;0.30;0.30;;;14.20;99.90;;;;;;4994720;28;20057;-47
2023/05/14 09:03:08;;;;;;;0.22;0.17;;;14.30;99.90;;;;;;5002114;28;20494;-46
2023/05/14 09:05:34;;;;;;;0.20;0.20;;;14.60;99.90;;;;;;5009691;28;20030;-43
2023/05/14 09:07:59;;;;;;;0.20;0.20;;;14.90;99.90;;;;;;4994303;28;20041;-44
2023/05/14 09:10:25;;;;;;;0.55;0.30;;;15.20;99.90;;;;;;5009762;28;20504;-46
2023/05/14 09:12:51;;;;;;;0.10;0.10;;;15.70;99.90;;;;;;5002692;28;20033;-48
2023/05/14 09:15:17;;;;;;;0.20;0.20;;;16.10;99.90;;;;;;5001607;28;20080;-51
2023/05/14 09:17:43;;;;;;;0.43;0.43;;;16.40;99.90;;;;;;4994202;28;20137;-52
2023/05/14 09:20:11;;;;;;;0.10;0.10;;;16.60;99.90;;;;;;4994219;28;20490;-43
2023/05/14 09:22:37;;;;;;;0.57;0.50;;;16.60;99.90;;;;;;4994369;28;20609;-52
2023/05/14 09:25:06;;;;;;;0.40;0.40;;;16.90;99.90;;;;;;4994363;28;20022;-43
2023/05/14 09:27:32;;;;;;;0.20;0.20;;;17.00;99.90;;;;;;4994389;28;20035;-53
2023/05/14 09:30:10;;;;;;;1.02;0.55;;;16.80;99.90;;;;;;4992601;28;20113;-45
2023/05/14 09:32:41;;;;;;;0.28;0.28;;;16.90;99.90;;;;;;4987249;28;20019;-48
2023/05/14 09:35:16;;;;;;;0.10;0.10;;;17.30;99.90;;;;;;4992434;28;20174;-51
2023/05/14 09:37:46;;;;;;;0.10;0.10;;;17.80;99.90;;;;;;4987589;28;20359;-53
2023/05/14 09:40:13;;;;;;;0.20;0.20;;;18.00;99.90;;;;;;4993634;28;20033;-47
2023/05/14 09:42:39;;;;;;;0.43;0.30;;;18.50;99.90;;;;;;4993702;28;20014;-43
2023/05/14 09:45:07;;;;;;;0.10;0.10;;;18.80;99.90;;;;;;4993908;28;20037;-53
2023/05/14 09:47:32;;;;;;;0.10;0.10;;;18.80;99.90;;;;;;4993733;28;20019;-52
2023/05/14 09:49:58;;;;;;;0.30;0.30;;;18.30;99.90;;;;;;4993897;28;20022;-45
2023/05/14 09:52:24;;;;;;;0.40;0.40;;;18.00;99.90;;;;;;4993902;28;20037;-44
2023/05/14 09:54:51;;;;;;;0.20;0.20;;;17.80;99.90;;;;;;4993606;28;20413;-45
2023/05/14 09:57:17;;;;;;;0.10;0.10;;;17.50;99.90;;;;;;4993741;28;20041;-45
2023/05/14 09:59:42;;;;;;;0.10;0.10;;;17.60;99.90;;;;;;4993587;28;20018;-42
2023/05/14 10:02:23;;;;;;;0.43;0.43;;;17.50;99.90;;;;;;4993559;28;20091;-48
2023/05/14 10:04:53;;;;;;;0.25;0.25;;;17.30;99.90;;;;;;4993779;28;20389;-44
2023/05/14 10:07:27;;;;;;;0.65;0.40;;;17.70;99.90;;;;;;4993726;28;20563;-43
2023/05/14 10:09:58;;;;;;;0.52;0.52;;;17.80;99.90;;;;;;5001723;28;20026;-47
2023/05/14 10:12:28;;;;;;;0.30;0.30;;;17.90;99.90;;;;;;4993662;28;20486;-49
2023/05/14 10:14:55;;;;;;;0.13;0.13;;;18.00;99.90;;;;;;4991912;28;20393;-47
2023/05/14 10:17:23;;;;;;;0.47;0.47;;;18.00;99.90;;;;;;4993376;28;20030;-47
2023/05/14 10:19:55;;;;;;;0.25;0.25;;;18.00;99.90;;;;;;4997767;28;20029;-42
2023/05/14 10:22:33;;;;;;;0.20;0.20;;;18.40;99.90;;;;;;5009536;28;20026;-42
2023/05/14 10:24:59;;;;;;;0.57;0.57;;;19.50;99.90;;;;;;4997947;28;20022;-47
2023/05/14 10:27:25;;;;;;;0.28;0.28;;;20.40;99.90;;;;;;5005465;28;20057;-56
2023/05/14 10:29:55;;;;;;;1.35;0.73;;;21.10;99.90;;;;;;5001836;28;20100;-49
2023/05/14 10:32:23;;;;;;;0.20;0.20;;;21.80;99.20;;;;;;5007800;28;20163;-52
2023/05/14 10:34:50;;;;;;;0.35;0.35;;;22.20;99.40;;;;;;5005045;28;20065;-52
2023/05/14 10:37:24;;;;;;;0.10;0.10;;;22.80;99.90;;;;;;5005628;28;20042;-53
2023/05/14 10:39:57;;;;;;;0.10;0.10;;;22.90;91.50;;;;;;5005419;28;20014;-54
2023/05/14 10:42:24;;;;;;;0.15;0.15;;;22.80;94.30;;;;;;4990031;28;20050;-46
2023/05/14 10:45:04;;;;;;;0.10;0.10;;;22.90;93.70;;;;;;5009521;28;20448;-48
2023/05/14 10:47:35;;;;;;;0.10;0.10;;;23.10;90.40;;;;;;5017448;28;20030;-46
2023/05/14 10:50:12;;;;;;;1.15;0.17;;;22.70;91.10;;;;;;4993254;28;20065;-54
2023/05/14 10:52:43;;;;;;;0.20;0.20;;;22.60;87.50;;;;;;4992457;28;20367;-43
2023/05/14 10:55:14;;;;;;;0.17;0.17;;;22.60;91.20;;;;;;4992533;28;20043;-54
2023/05/14 10:57:42;;;;;;;0.20;0.20;;;22.80;91.40;;;;;;4979715;28;20386;-50
2023/05/14 11:00:09;;;;;;;0.40;0.40;;;23.30;91.80;;;;;;4992678;28;20030;-46
2023/05/14 11:02:43;;;;;;;0.40;0.30;;;23.50;87.90;;;;;;4992220;28;20022;-55
2023/05/14 11:05:16;;;;;;;0.63;0.40;;;23.30;87.60;;;;;;4992406;28;20027;-48
2023/05/14 11:07:42;;;;;;;0.32;0.30;;;22.70;85.00;;;;;;4991948;28;20030;-51
2023/05/14 11:10:13;;;;;;;0.35;0.28;;;22.40;86.70;;;;;;4992372;28;20034;-49
2023/05/14 11:12:50;;;;;;;0.38;0.30;;;22.70;94.40;;;;;;4992220;28;20073;-47
2023/05/14 11:15:21;;;;;;;0.10;0.10;;;22.80;90.40;;;;;;4992238;28;20496;-47
2023/05/14 11:17:48;;;;;;;0.57;0.40;;;22.70;88.60;;;;;;4992153;28;20027;-46
2023/05/14 11:20:14;;;;;;;0.32;0.28;;;22.60;94.50;;;;;;4992204;28;20035;-48
2023/05/14 11:22:41;;;;;;;0.50;0.38;;;22.60;90.50;;;;;;4992102;28;20038;-47
2023/05/14 11:25:08;;;;;;;0.45;0.45;;;22.40;84.10;;;;;;4992089;28;20034;-49
2023/05/14 11:27:37;;;;;;;0.10;0.10;;;22.80;93.80;;;;;;4993850;28;20026;-48
2023/05/14 11:30:04;;;;;;;0.30;0.20;;;22.60;84.60;;;;;;4984529;28;20030;-53
2023/05/14 11:32:32;;;;;;;0.17;0.15;;;22.50;84.40;;;;;;4995533;28;20032;-50
2023/05/14 11:34:58;;;;;;;1.13;0.80;;;22.40;94.10;;;;;;4999884;28;20105;-45
2023/05/14 11:37:23;;;;;;;0.43;0.20;;;22.90;93.90;;;;;;5007195;28;20176;-45
2023/05/14 11:39:54;;;;;;;0.28;0.28;;;23.20;94.90;;;;;;5005150;28;20018;-42
2023/05/14 11:42:23;;;;;;;0.10;0.10;;;23.70;93.00;;;;;;5003878;28;20054;-41
2023/05/14 11:44:52;;;;;;;0.10;0.10;;;24.00;85.50;;;;;;4990981;28;20050;-42
2023/05/14 11:47:19;;;;;;;0.35;0.20;;;24.20;82.90;;;;;;4991923;28;20023;-49
2023/05/14 11:49:45;;;;;;;0.70;0.30;;;24.20;85.60;;;;;;5006841;28;20394;-43
2023/05/14 11:52:13;;;;;;;0.10;0.10;;;24.20;90.10;;;;;;4991859;28;20081;-44
2023/05/14 11:54:40;;;;;;;0.43;0.38;;;24.10;85.10;;;;;;4992703;28;20390;-54
2023/05/14 11:57:11;;;;;;;0.10;0.10;;;23.90;86.80;;;;;;4997349;28;20040;-42
2023/05/14 11:59:37;;;;;;;0.75;0.35;;;23.80;86.80;;;;;;4991839;28;20037;-40
2023/05/14 12:02:04;;;;;;;0.20;0.20;;;23.70;90.10;;;;;;5003306;28;20023;-41
2023/05/14 12:04:30;;;;;;;0.40;0.25;;;23.80;93.20;;;;;;4991533;28;20092;-45
2023/05/14 12:06:58;;;;;;;0.10;0.10;;;23.60;88.10;;;;;;4991002;28;20022;-42
2023/05/14 12:09:25;;;;;;;0.43;0.30;;;23.20;85.70;;;;;;4991197;28;20113;-43
2023/05/14 12:11:51;;;;;;;0.20;0.10;;;23.10;92.10;;;;;;4991400;28;20189;-46
2023/05/14 12:14:23;;;;;;;0.20;0.20;;;23.00;92.00;;;;;;5004150;28;20022;-45
2023/05/14 12:16:50;;;;;;;0.10;0.10;;;23.10;91.10;;;;;;4999729;28;20030;-52
2023/05/14 12:19:17;;;;;;;1.15;0.20;;;23.10;90.00;;;;;;4991251;28;20026;-41
2023/05/14 12:21:45;;;;;;;0.55;0.40;;;23.30;89.80;;;;;;4991011;28;20034;-48
2023/05/14 12:24:16;;;;;;;0.47;0.40;;;23.30;91.60;;;;;;4978068;28;20026;-48
2023/05/14 12:26:47;;;;;;;0.20;0.20;;;23.10;87.10;;;;;;4992447;28;20109;-48
2023/05/14 12:29:14;;;;;;;0.75;0.45;;;22.80;90.30;;;;;;4991660;28;20027;-42
2023/05/14 12:31:47;;;;;;;0.73;0.73;;;22.80;92.60;;;;;;4991213;28;20023;-52
2023/05/14 12:34:13;;;;;;;0.30;0.30;;;23.00;90.60;;;;;;4991931;28;20038;-48
2023/05/14 12:36:39;;;;;;;0.55;0.28;;;22.90;94.40;;;;;;4993128;28;20038;-51
2023/05/14 12:39:05;;;;;;;0.38;0.38;;;22.60;89.80;;;;;;4993509;28;20065;-44
2023/05/14 12:41:31;;;;;;;0.30;0.30;;;22.30;91.50;;;;;;4991026;28;20156;-44
2023/05/14 12:43:58;;;;;;;0.20;0.20;;;22.00;93.60;;;;;;4999080;28;20022;-56
2023/05/14 12:46:26;;;;;;;0.20;0.20;;;21.90;93.70;;;;;;4995784;28;20023;-45